Time;durP1;ratioP1;P1;durP2;ratioP2;P2;SDS_P1;SDS_P2;PMS_P1;PMS_P2;Temp;Humidity;BMP_temperature;BMP_pressure;BME280_temperature;BME280_humidity;BME280_pressure;Samples;Min_cycle;Max_cycle;Signal;HPM_P1;HPM_P2
2023/08/06 00:00:17;;;;;;;2.70;2.50;;;;;;;15.69;100.00;99161.44;5022159;28;20182;-68
2023/08/06 00:02:42;;;;;;;2.77;2.50;;;;;;;15.68;100.00;99164.16;5044273;28;20182;-69
2023/08/06 00:05:07;;;;;;;4.03;2.80;;;;;;;15.71;100.00;99162.09;5030647;28;20533;-68
2023/08/06 00:07:33;;;;;;;3.77;2.33;;;;;;;15.56;100.00;99158.31;5031423;28;20190;-69
2023/08/06 00:09:58;;;;;;;3.83;2.97;;;;;;;15.64;100.00;99155.81;5030930;28;20600;-68
2023/08/06 00:12:23;;;;;;;3.60;2.53;;;;;;;15.73;100.00;99156.78;5005791;28;20279;-69
2023/08/06 00:14:53;;;;;;;3.40;2.97;;;;;;;15.63;100.00;99154.22;5012484;28;20715;-69
2023/08/06 00:17:18;;;;;;;2.67;2.37;;;;;;;15.62;100.00;99155.16;5029904;28;20261;-69
2023/08/06 00:19:44;;;;;;;3.43;2.53;;;;;;;15.83;100.00;99155.00;5030902;28;20201;-69
2023/08/06 00:22:09;;;;;;;3.83;2.83;;;;;;;15.78;100.00;99147.63;5032123;28;20229;-69
2023/08/06 00:24:35;;;;;;;2.77;2.47;;;;;;;15.70;100.00;99131.13;5030711;28;20178;-68
2023/08/06 00:27:00;;;;;;;3.60;2.57;;;;;;;15.78;100.00;99126.88;5031111;28;20178;-68
2023/08/06 00:29:25;;;;;;;4.20;2.73;;;;;;;15.88;100.00;99126.88;5030896;28;20549;-68
2023/08/06 00:31:51;;;;;;;6.30;2.87;;;;;;;15.92;100.00;99128.22;5029306;28;20276;-67
2023/08/06 00:34:16;;;;;;;3.50;2.60;;;;;;;15.92;100.00;99127.41;5027935;28;20185;-69
2023/08/06 00:36:41;;;;;;;6.27;2.73;;;;;;;15.77;100.00;99127.03;5030628;28;20642;-68
2023/08/06 00:39:07;;;;;;;3.60;2.30;;;;;;;15.62;100.00;99124.88;5021045;28;20186;-68
2023/08/06 00:41:32;;;;;;;2.80;2.53;;;;;;;15.42;100.00;99115.50;5028859;28;20225;-67
2023/08/06 00:43:57;;;;;;;3.13;2.80;;;;;;;15.43;100.00;99122.31;5022715;28;20711;-69
2023/08/06 00:46:23;;;;;;;4.37;2.70;;;;;;;15.53;100.00;99114.53;5034451;28;20185;-69
2023/08/06 00:48:50;;;;;;;3.47;2.93;;;;;;;15.65;100.00;99106.44;5033077;28;20224;-68
2023/08/06 00:51:15;;;;;;;4.00;2.50;;;;;;;15.61;100.00;99099.91;5033823;28;20558;-68
2023/08/06 00:53:41;;;;;;;2.83;2.43;;;;;;;15.68;100.00;99096.75;5032543;28;20221;-67
2023/08/06 00:56:07;;;;;;;3.23;2.80;;;;;;;15.78;100.00;99100.13;5033806;28;20178;-67
2023/08/06 00:58:33;;;;;;;3.43;2.60;;;;;;;16.03;100.00;99100.50;5034305;28;20697;-68
2023/08/06 01:00:58;;;;;;;2.70;2.50;;;;;;;15.99;100.00;99097.34;5025898;28;20292;-68
2023/08/06 01:03:24;;;;;;;5.17;2.93;;;;;;;15.81;100.00;99090.31;5042289;28;20630;-68
2023/08/06 01:05:50;;;;;;;2.80;2.60;;;;;;;15.78;100.00;99087.19;5033472;28;20181;-68
2023/08/06 01:08:21;;;;;;;4.37;2.90;;;;;;;15.68;100.00;99076.00;5032685;28;20186;-68
2023/08/06 01:11:14;;;;;;;4.43;3.07;;;;;;;15.79;100.00;99086.22;5029877;28;20229;-68
2023/08/06 01:13:49;;;;;;;6.53;3.37;;;;;;;15.58;100.00;99083.81;5039649;28;20335;-67
2023/08/06 01:16:16;;;;;;;4.80;3.93;;;;;;;15.66;100.00;99078.75;5033643;28;20221;-69
2023/08/06 01:18:45;;;;;;;3.57;2.80;;;;;;;15.68;100.00;99073.41;5019522;28;20301;-67
2023/08/06 01:21:11;;;;;;;4.87;2.70;;;;;;;15.78;100.00;99082.00;5032670;28;20693;-67
2023/08/06 01:23:36;;;;;;;2.83;2.50;;;;;;;15.66;100.00;99086.53;5039820;28;20209;-69
2023/08/06 01:26:34;;;;;;;3.83;3.00;;;;;;;15.43;100.00;99080.84;5033425;28;20193;-69
2023/08/06 01:29:07;;;;;;;4.23;3.20;;;;;;;15.47;100.00;99083.03;5024875;28;20222;-69
2023/08/06 01:31:37;;;;;;;5.37;3.00;;;;;;;15.49;100.00;99081.13;5034567;28;20224;-69
2023/08/06 01:34:05;;;;;;;4.70;3.17;;;;;;;15.51;100.00;99078.38;5036406;28;20217;-68
2023/08/06 01:36:31;;;;;;;3.80;3.40;;;;;;;15.47;100.00;99080.44;5032180;28;20186;-68
2023/08/06 01:38:57;;;;;;;4.77;2.90;;;;;;;15.47;100.00;99085.63;5033701;28;20247;-69
2023/08/06 01:41:22;;;;;;;3.00;2.80;;;;;;;15.54;100.00;99077.28;5032987;28;20225;-68
2023/08/06 01:43:48;;;;;;;3.97;3.37;;;;;;;15.39;100.00;99071.72;5038470;28;20197;-69
2023/08/06 01:46:13;;;;;;;3.57;2.97;;;;;;;15.42;100.00;99081.81;5032868;28;20178;-69
2023/08/06 01:48:38;;;;;;;6.23;3.17;;;;;;;15.47;100.00;99080.44;5032681;28;20210;-68
2023/08/06 01:51:05;;;;;;;3.70;3.00;;;;;;;15.53;100.00;99078.22;5030585;28;20668;-68
2023/08/06 01:53:31;;;;;;;4.17;2.93;;;;;;;15.39;100.00;99074.31;5040285;28;20205;-68
2023/08/06 01:55:56;;;;;;;3.90;2.90;;;;;;;15.41;100.00;99069.81;5032270;28;20280;-69
2023/08/06 01:58:22;;;;;;;3.27;2.97;;;;;;;15.36;100.00;99056.47;5033376;28;20309;-68
2023/08/06 02:00:47;;;;;;;3.57;2.80;;;;;;;15.31;100.00;99069.84;5028716;28;20233;-68
2023/08/06 02:03:12;;;;;;;4.80;3.10;;;;;;;15.07;100.00;99059.91;5042345;28;20205;-68
2023/08/06 02:05:37;;;;;;;3.10;2.80;;;;;;;15.09;100.00;99061.41;5032504;28;20186;-68
2023/08/06 02:08:03;;;;;;;4.73;2.77;;;;;;;15.01;100.00;99056.91;5033304;28;20281;-68
2023/08/06 02:10:28;;;;;;;3.37;3.07;;;;;;;15.03;100.00;99054.19;5026061;28;20622;-67
2023/08/06 02:12:53;;;;;;;8.23;2.90;;;;;;;15.05;100.00;99052.28;5043864;28;20214;-68
2023/08/06 02:15:19;;;;;;;3.80;3.07;;;;;;;15.11;100.00;99056.13;5032383;28;20241;-68
2023/08/06 02:17:44;;;;;;;3.50;3.20;;;;;;;15.01;100.00;99056.13;5032598;28;20178;-67
2023/08/06 02:20:09;;;;;;;9.73;3.50;;;;;;;15.11;100.00;99059.50;5023699;28;20177;-67
2023/08/06 02:22:35;;;;;;;3.57;2.73;;;;;;;15.30;100.00;99050.88;5030642;28;20569;-69
2023/08/06 02:25:00;;;;;;;6.30;3.40;;;;;;;15.25;100.00;99053.06;5032212;28;20177;-68
2023/08/06 02:27:25;;;;;;;5.23;2.80;;;;;;;15.33;100.00;99053.19;5032795;28;20190;-69
2023/08/06 02:29:50;;;;;;;8.87;3.20;;;;;;;15.15;100.00;99047.09;5032434;28;20193;-68
2023/08/06 02:32:16;;;;;;;3.87;3.00;;;;;;;15.15;100.00;99049.69;5036969;28;20237;-68
2023/08/06 02:34:41;;;;;;;3.33;3.00;;;;;;;15.07;100.00;99039.19;5032128;28;20533;-69
2023/08/06 02:37:06;;;;;;;4.73;2.80;;;;;;;15.17;100.00;99043.41;5032757;28;20190;-69
2023/08/06 02:39:33;;;;;;;7.03;3.07;;;;;;;15.15;100.00;99036.75;5032412;28;20192;-68
2023/08/06 02:41:58;;;;;;;4.40;3.10;;;;;;;15.27;100.00;99033.03;5035952;28;20229;-69
2023/08/06 02:44:27;;;;;;;6.47;2.80;;;;;;;15.20;100.00;99025.97;5032130;28;20192;-69
2023/08/06 02:46:52;;;;;;;4.30;2.70;;;;;;;15.30;100.00;99017.19;5032105;28;20289;-69
2023/08/06 02:49:17;;;;;;;2.70;2.50;;;;;;;15.20;100.00;99016.41;5031899;28;20669;-69
2023/08/06 02:51:45;;;;;;;4.63;2.87;;;;;;;15.27;100.00;99020.06;5032995;28;20229;-68
2023/08/06 02:54:10;;;;;;;3.63;3.30;;;;;;;15.37;100.00;99014.88;5030085;28;20201;-68
2023/08/06 02:56:35;;;;;;;3.03;2.83;;;;;;;15.54;100.00;99017.66;5032240;28;20257;-68
2023/08/06 02:59:00;;;;;;;3.47;2.80;;;;;;;15.62;100.00;99013.41;5030506;28;20174;-68
2023/08/06 03:01:26;;;;;;;4.63;2.50;;;;;;;15.46;100.00;99016.59;5021995;28;20275;-67
2023/08/06 03:03:52;;;;;;;3.80;3.10;;;;;;;15.47;100.00;99020.03;5036496;28;20178;-68
2023/08/06 03:06:17;;;;;;;3.00;2.50;;;;;;;15.51;100.00;99007.59;5031696;28;20581;-69
2023/08/06 03:08:42;;;;;;;4.30;3.20;;;;;;;15.46;100.00;99006.22;5031881;28;20182;-69
2023/08/06 03:11:08;;;;;;;3.27;2.97;;;;;;;15.44;100.00;98999.56;5030330;28;20275;-69
2023/08/06 03:13:33;;;;;;;6.30;3.20;;;;;;;15.42;100.00;98997.13;5038249;28;20292;-68
2023/08/06 03:15:59;;;;;;;4.07;2.40;;;;;;;15.34;100.00;98991.81;5028230;28;20237;-68
2023/08/06 03:18:28;;;;;;;5.57;3.00;;;;;;;15.28;100.00;98988.03;5039172;28;20260;-68
2023/08/06 03:20:53;;;;;;;3.03;2.67;;;;;;;15.15;100.00;98983.16;5028450;28;20622;-69
2023/08/06 03:23:19;;;;;;;2.70;2.50;;;;;;;15.12;100.00;98980.84;5039813;28;20181;-69
2023/08/06 03:25:44;;;;;;;4.60;2.73;;;;;;;15.03;100.00;98975.69;5031414;28;20298;-68
2023/08/06 03:28:10;;;;;;;3.37;2.80;;;;;;;14.89;100.00;98977.75;5031579;28;20668;-68
2023/08/06 03:30:35;;;;;;;3.20;2.70;;;;;;;14.85;100.00;98986.78;5003009;28;20240;-67
2023/08/06 03:33:00;;;;;;;6.27;3.30;;;;;;;14.76;100.00;98987.59;5041967;28;20225;-68
2023/08/06 03:35:26;;;;;;;4.77;2.70;;;;;;;14.72;100.00;98989.63;5031063;28;20182;-68
2023/08/06 03:37:51;;;;;;;8.33;3.10;;;;;;;14.74;100.00;98987.72;5029790;28;20186;-68
2023/08/06 03:40:16;;;;;;;4.13;2.60;;;;;;;14.82;100.00;98987.03;5023289;28;20274;-69
2023/08/06 03:42:41;;;;;;;5.43;3.00;;;;;;;14.90;100.00;98984.56;5044370;28;20208;-68
2023/08/06 03:45:07;;;;;;;4.03;2.80;;;;;;;15.07;100.00;98975.28;5030908;28;20178;-68
2023/08/06 03:47:32;;;;;;;3.77;2.60;;;;;;;15.10;100.00;98981.94;5030907;28;20221;-68
2023/08/06 03:49:58;;;;;;;2.70;2.50;;;;;;;15.00;100.00;98975.00;5031467;28;20182;-68
2023/08/06 03:52:23;;;;;;;3.33;2.50;;;;;;;15.12;100.00;98977.44;5036147;28;20272;-67
2023/08/06 03:54:48;;;;;;;4.00;2.53;;;;;;;15.04;100.00;98977.34;5030953;28;20689;-68
2023/08/06 03:57:14;;;;;;;3.30;2.00;;;;;;;15.04;100.00;98980.72;5031345;28;20181;-67
2023/08/06 03:59:39;;;;;;;5.60;2.60;;;;;;;15.12;100.00;98980.84;5031184;28;20552;-67
2023/08/06 04:02:04;;;;;;;3.37;2.40;;;;;;;15.09;100.00;98980.31;5035743;28;20253;-65
2023/08/06 04:04:29;;;;;;;3.03;2.60;;;;;;;15.21;100.00;98979.19;5030625;28;20250;-66
2023/08/06 04:06:55;;;;;;;4.90;2.80;;;;;;;15.25;100.00;98977.94;5029722;28;20293;-67
2023/08/06 04:09:20;;;;;;;4.37;2.37;;;;;;;15.22;100.00;98978.25;5030958;28;20190;-66
2023/08/06 04:11:45;;;;;;;3.50;2.20;;;;;;;15.20;100.00;98979.34;5019277;28;20681;-66
2023/08/06 04:14:11;;;;;;;5.17;2.20;;;;;;;15.24;100.00;98976.31;5036625;28;20217;-67
2023/08/06 04:16:36;;;;;;;3.07;2.10;;;;;;;15.15;100.00;98972.78;5033456;28;20237;-67
2023/08/06 04:19:01;;;;;;;5.13;2.07;;;;;;;15.22;100.00;98974.81;5033838;28;20251;-67
2023/08/06 04:21:26;;;;;;;3.13;1.80;;;;;;;15.01;100.00;98974.06;5020184;28;20233;-66
2023/08/06 04:23:52;;;;;;;3.50;2.00;;;;;;;15.12;100.00;98972.25;5033378;28;20178;-66
2023/08/06 04:26:17;;;;;;;3.80;1.90;;;;;;;15.12;100.00;98973.09;5034236;28;20178;-65
2023/08/06 04:28:42;;;;;;;4.30;2.10;;;;;;;14.95;100.00;98966.03;5034736;28;20631;-65
2023/08/06 04:31:07;;;;;;;3.60;1.90;;;;;;;14.88;100.00;98968.34;5027167;28;20220;-66
2023/08/06 04:33:33;;;;;;;1.77;1.60;;;;;;;14.87;100.00;98977.06;5040689;28;20300;-67
2023/08/06 04:35:59;;;;;;;4.33;1.73;;;;;;;14.93;100.00;98973.94;5032843;28;20327;-67
2023/08/06 04:38:25;;;;;;;3.97;1.90;;;;;;;14.95;100.00;98973.81;5035079;28;20189;-67
2023/08/06 04:40:50;;;;;;;4.87;1.87;;;;;;;14.82;100.00;98971.50;5035437;28;20234;-66
2023/08/06 04:43:16;;;;;;;3.00;1.63;;;;;;;14.78;100.00;98972.75;5031268;28;20624;-67
2023/08/06 04:45:53;;;;;;;2.67;1.13;;;;;;;14.62;100.00;98970.69;5033792;28;20232;-66
2023/08/06 04:48:18;;;;;;;2.53;1.70;;;;;;;14.60;100.00;98975.16;5034604;28;20283;-66
2023/08/06 04:50:47;;;;;;;2.50;1.20;;;;;;;14.27;100.00;98969.47;5022711;28;20249;-66
2023/08/06 04:53:13;;;;;;;3.37;1.70;;;;;;;14.30;100.00;98970.00;5038769;28;20209;-67
2023/08/06 04:55:38;;;;;;;3.10;1.30;;;;;;;14.24;100.00;98980.91;5032238;28;20261;-67
2023/08/06 04:58:04;;;;;;;3.20;1.40;;;;;;;14.30;100.00;98974.34;5034167;28;20629;-68
2023/08/06 05:00:29;;;;;;;4.20;1.40;;;;;;;14.47;100.00;98983.22;5027107;28;20237;-68
2023/08/06 05:02:55;;;;;;;3.53;1.37;;;;;;;14.35;100.00;98974.75;5044708;28;20193;-68
2023/08/06 05:05:20;;;;;;;2.37;1.13;;;;;;;14.37;100.00;98972.84;5033471;28;20209;-68
2023/08/06 05:07:49;;;;;;;1.43;1.17;;;;;;;14.25;100.00;98977.38;5032793;28;20174;-68
2023/08/06 05:10:15;;;;;;;1.33;1.23;;;;;;;14.26;100.00;98978.97;5023970;28;20197;-68
2023/08/06 05:12:40;;;;;;;3.60;1.17;;;;;;;14.25;100.00;98977.38;5032299;28;20552;-68
2023/08/06 05:15:06;;;;;;;3.50;1.50;;;;;;;14.26;100.00;98978.97;5033022;28;20234;-69
2023/08/06 05:17:31;;;;;;;1.93;1.30;;;;;;;14.34;100.00;98971.38;5034201;28;20178;-70
2023/08/06 05:19:57;;;;;;;2.60;1.23;;;;;;;14.43;100.00;98974.91;5032409;28;20562;-69
2023/08/06 05:22:22;;;;;;;2.73;1.50;;;;;;;14.62;100.00;98979.25;5016985;28;20221;-68
2023/08/06 05:24:47;;;;;;;1.40;1.20;;;;;;;14.75;100.00;98976.44;5031801;28;20684;-68
2023/08/06 05:27:13;;;;;;;2.37;1.37;;;;;;;14.75;100.00;98971.25;5033707;28;20277;-69
2023/08/06 05:29:38;;;;;;;1.53;1.10;;;;;;;14.86;100.00;98970.28;5033219;28;20190;-68
2023/08/06 05:32:03;;;;;;;1.10;0.80;;;;;;;14.84;100.00;98967.81;5025118;28;20266;-68
2023/08/06 05:34:29;;;;;;;1.57;0.97;;;;;;;14.98;100.00;98963.16;5033065;28;20201;-67
2023/08/06 05:36:54;;;;;;;2.07;1.30;;;;;;;15.13;100.00;98968.72;5033542;28;20653;-66
2023/08/06 05:39:19;;;;;;;1.90;0.90;;;;;;;15.13;100.00;98960.94;5032066;28;20277;-66
2023/08/06 05:41:45;;;;;;;3.30;0.90;;;;;;;15.05;100.00;98964.25;5017404;28;20708;-67
2023/08/06 05:44:10;;;;;;;1.73;1.33;;;;;;;15.01;100.00;98966.28;5032643;28;20185;-67
2023/08/06 05:46:35;;;;;;;1.00;1.00;;;;;;;14.97;100.00;98970.13;5033691;28;20170;-67
2023/08/06 05:49:00;;;;;;;1.80;0.80;;;;;;;14.98;100.00;98965.75;5031831;28;20213;-67
2023/08/06 05:51:26;;;;;;;0.80;0.80;;;;;;;14.82;100.00;98968.91;5033700;28;20711;-67
2023/08/06 05:53:52;;;;;;;1.37;1.03;;;;;;;14.80;100.00;98974.22;5037368;28;20206;-67
2023/08/06 05:56:17;;;;;;;0.90;0.70;;;;;;;14.81;100.00;98981.03;5032590;28;20182;-66
2023/08/06 05:58:42;;;;;;;3.23;0.90;;;;;;;14.82;100.00;98977.50;5031603;28;20705;-67
2023/08/06 06:01:08;;;;;;;0.87;0.70;;;;;;;14.69;100.00;98976.97;5017364;28;20250;-67
2023/08/06 06:03:33;;;;;;;1.90;0.63;;;;;;;14.63;100.00;98974.91;5034006;28;20598;-67
2023/08/06 06:06:01;;;;;;;1.13;0.70;;;;;;;14.57;100.00;98980.63;5031656;28;20313;-67
2023/08/06 06:08:26;;;;;;;1.37;0.80;;;;;;;14.47;100.00;98976.25;5032741;28;20256;-67
2023/08/06 06:10:51;;;;;;;1.73;0.80;;;;;;;14.55;100.00;98977.34;5022263;28;20223;-67
2023/08/06 06:13:16;;;;;;;1.23;0.73;;;;;;;14.62;100.00;98974.06;5019519;28;20292;-67
2023/08/06 06:15:42;;;;;;;1.00;0.90;;;;;;;14.40;100.00;98971.78;5030865;28;20221;-68
2023/08/06 06:18:07;;;;;;;0.80;0.70;;;;;;;14.47;100.00;98986.59;5031425;28;20197;-68
2023/08/06 06:20:33;;;;;;;1.33;0.70;;;;;;;14.54;100.00;98986.91;5024634;28;20701;-67
2023/08/06 06:22:59;;;;;;;0.60;0.60;;;;;;;14.55;100.00;98985.94;5021748;28;20277;-68
2023/08/06 06:25:24;;;;;;;0.70;0.70;;;;;;;14.42;100.00;98983.63;5031841;28;20201;-67
2023/08/06 06:27:49;;;;;;;1.67;0.90;;;;;;;14.55;100.00;98985.94;5032253;28;20190;-67
2023/08/06 06:30:14;;;;;;;0.80;0.80;;;;;;;14.67;100.00;98991.81;5022696;28;20618;-67
2023/08/06 06:32:40;;;;;;;2.77;0.83;;;;;;;14.60;100.00;98990.69;5045158;28;20244;-67
2023/08/06 06:35:06;;;;;;;0.73;0.73;;;;;;;14.67;100.00;98991.81;5030350;28;20185;-64
2023/08/06 06:37:31;;;;;;;0.83;0.83;;;;;;;14.65;100.00;98994.53;5032237;28;20210;-66
2023/08/06 06:39:56;;;;;;;2.23;1.10;;;;;;;14.57;100.00;98991.78;5032221;28;20253;-66
2023/08/06 06:42:22;;;;;;;0.80;0.70;;;;;;;14.64;100.00;98997.25;5016385;28;20309;-66
2023/08/06 06:44:48;;;;;;;0.77;0.77;;;;;;;14.67;100.00;98995.25;5031174;28;20174;-66
2023/08/06 06:47:13;;;;;;;1.50;1.00;;;;;;;14.87;100.00;98995.19;5031419;28;20174;-66
2023/08/06 06:49:38;;;;;;;0.90;0.90;;;;;;;15.10;100.00;98990.53;5031221;28;20280;-66
2023/08/06 06:52:04;;;;;;;1.87;1.10;;;;;;;15.05;100.00;98995.31;5018193;28;20225;-66
2023/08/06 06:54:29;;;;;;;4.20;0.93;;;;;;;15.20;100.00;98997.47;5030884;28;20189;-66
2023/08/06 06:56:55;;;;;;;1.00;0.90;;;;;;;15.14;100.00;98993.66;5031524;28;20209;-66
2023/08/06 06:59:20;;;;;;;2.10;0.70;;;;;;;15.04;100.00;98991.09;5032066;28;20182;-66
2023/08/06 07:01:45;;;;;;;1.17;1.07;;;;;;;15.03;100.00;98983.47;5038490;28;20360;-66
2023/08/06 07:04:10;;;;;;;1.43;0.70;;;;;;;15.09;100.00;98985.50;5035997;28;20263;-66
2023/08/06 07:06:36;;;;;;;1.93;0.90;;;;;;;15.33;100.00;98993.59;5032196;28;20178;-66
2023/08/06 07:09:01;;;;;;;1.13;1.00;;;;;;;15.32;100.00;98997.16;5030555;28;20178;-66
2023/08/06 07:11:26;;;;;;;3.13;1.10;;;;;;;15.47;100.00;98994.91;5032579;28;20229;-66
2023/08/06 07:13:58;;;;;;;1.03;0.70;;;;;;;15.59;100.00;98992.97;5029650;28;20202;-66
2023/08/06 07:16:25;;;;;;;0.90;0.70;;;;;;;15.81;100.00;98996.13;5031751;28;20294;-66
2023/08/06 07:18:52;;;;;;;2.10;0.73;;;;;;;15.74;100.00;98993.31;5036866;28;20186;-66
2023/08/06 07:21:17;;;;;;;1.07;0.90;;;;;;;16.20;100.00;98995.94;5031441;28;20680;-66
2023/08/06 07:23:42;;;;;;;0.83;0.50;;;;;;;16.64;100.00;98992.59;5037352;28;20185;-66
2023/08/06 07:26:09;;;;;;;0.60;0.60;;;;;;;17.03;100.00;98988.81;5029776;28;20527;-66
2023/08/06 07:28:34;;;;;;;0.60;0.60;;;;;;;17.14;100.00;98988.59;5030556;28;20604;-66
2023/08/06 07:30:59;;;;;;;0.57;0.57;;;;;;;17.31;100.00;98981.69;5008563;28;20340;-66
2023/08/06 07:33:24;;;;;;;0.67;0.60;;;;;;;17.39;100.00;98986.94;5031427;28;20206;-64
2023/08/06 07:35:50;;;;;;;1.10;0.77;;;;;;;17.56;100.00;98987.84;5031113;28;20193;-66
2023/08/06 07:38:15;;;;;;;0.60;0.50;;;;;;;17.77;100.00;98988.41;5019103;28;20173;-66
2023/08/06 07:40:40;;;;;;;1.13;0.70;;;;;;;18.05;100.00;98984.59;5025807;28;20324;-66
2023/08/06 07:43:05;;;;;;;0.30;0.30;;;;;;;18.48;100.00;98989.72;5041906;28;20642;-66
2023/08/06 07:45:38;;;;;;;0.60;0.60;;;;;;;18.69;100.00;98977.97;5030300;28;20199;-65
2023/08/06 07:48:04;;;;;;;0.30;0.30;;;;;;;19.09;100.00;98984.16;5019297;28;20535;-66
2023/08/06 07:50:29;;;;;;;0.97;0.50;;;;;;;19.62;100.00;98979.25;5024060;28;20232;-65
2023/08/06 07:52:55;;;;;;;0.30;0.30;;;;;;;19.70;100.00;98980.19;5042610;28;20217;-65
2023/08/06 07:55:20;;;;;;;0.83;0.40;;;;;;;19.60;100.00;98973.41;5030834;28;20178;-66
2023/08/06 07:57:45;;;;;;;0.43;0.43;;;;;;;19.73;100.00;98977.25;5031285;28;20216;-66
2023/08/06 08:00:11;;;;;;;0.90;0.50;;;;;;;20.34;100.00;98976.59;5022381;28;20285;-66
2023/08/06 08:02:36;;;;;;;0.30;0.30;;;;;;;20.05;100.00;98976.28;5044335;28;20194;-67
2023/08/06 08:05:02;;;;;;;0.50;0.50;;;;;;;19.97;100.00;98974.53;5030871;28;20244;-67
2023/08/06 08:07:30;;;;;;;3.93;0.50;;;;;;;20.86;100.00;98964.59;5031566;28;20186;-67
2023/08/06 08:09:55;;;;;;;0.33;0.33;;;;;;;21.67;100.00;98967.31;5029397;28;20549;-67
2023/08/06 08:12:20;;;;;;;1.40;0.23;;;;;;;22.52;100.00;98964.94;5020694;28;20221;-68
2023/08/06 08:14:46;;;;;;;0.40;0.40;;;;;;;22.60;100.00;98968.41;5030523;28;20661;-68
2023/08/06 08:17:12;;;;;;;0.40;0.20;;;;;;;21.72;100.00;98964.16;5031391;28;20312;-68
2023/08/06 08:19:37;;;;;;;0.50;0.50;;;;;;;22.50;100.00;98961.69;5031109;28;20345;-68
2023/08/06 08:22:03;;;;;;;0.50;0.40;;;;;;;22.82;100.00;98956.91;5029947;28;20628;-67
2023/08/06 08:24:30;;;;;;;2.77;0.57;;;;;;;23.41;100.00;98957.44;5030596;28;20185;-67
2023/08/06 08:26:55;;;;;;;2.60;0.40;;;;;;;23.35;100.00;98955.59;5031279;28;20283;-67
2023/08/06 08:29:21;;;;;;;0.35;0.35;;;;;;;24.57;100.00;98957.50;5031164;28;20265;-67
2023/08/06 08:31:48;;;;;;;0.77;0.38;;;;;;;25.10;94.07;98949.53;5033801;28;20221;-67
2023/08/06 08:34:14;;;;;;;0.30;0.20;;;;;;;25.52;96.21;98941.31;5029156;28;20209;-67
2023/08/06 08:36:39;;;;;;;2.30;0.40;;;;;;;25.26;95.29;98952.75;5018444;28;20182;-67
2023/08/06 08:39:05;;;;;;;1.10;0.40;;;;;;;24.26;97.52;98946.59;5031080;28;20523;-67
2023/08/06 08:41:31;;;;;;;0.40;0.40;;;;;;;22.63;100.00;98952.31;5031661;28;20222;-67
2023/08/06 08:43:58;;;;;;;1.35;0.30;;;;;;;22.97;100.00;98954.19;5034724;28;20539;-67
2023/08/06 08:46:25;;;;;;;0.75;0.45;;;;;;;23.46;100.00;98946.38;5017626;28;20194;-67
2023/08/06 08:48:51;;;;;;;0.52;0.52;;;;;;;23.83;100.00;98950.31;5029556;28;20209;-67
2023/08/06 08:51:17;;;;;;;0.90;0.30;;;;;;;23.27;100.00;98945.25;5030120;28;20225;-67
2023/08/06 08:53:44;;;;;;;0.95;0.55;;;;;;;23.44;100.00;98945.75;5036028;28;20212;-67
2023/08/06 08:56:12;;;;;;;1.08;0.40;;;;;;;23.12;100.00;98948.81;5030653;28;20178;-66
2023/08/06 08:58:38;;;;;;;3.40;0.57;;;;;;;22.02;100.00;98943.13;5034398;28;20265;-66
2023/08/06 09:01:04;;;;;;;1.07;0.30;;;;;;;21.47;100.00;98945.28;5032021;28;20300;-67
2023/08/06 09:03:30;;;;;;;0.30;0.30;;;;;;;21.16;100.00;98954.97;5041286;28;20240;-66
2023/08/06 09:05:57;;;;;;;0.57;0.30;;;;;;;20.40;100.00;98953.19;5033358;28;20601;-66
2023/08/06 09:08:27;;;;;;;1.03;0.40;;;;;;;19.55;100.00;98957.44;5034253;28;20182;-67
2023/08/06 09:10:53;;;;;;;2.10;0.50;;;;;;;19.04;100.00;98952.56;5030695;28;20229;-67
2023/08/06 09:13:19;;;;;;;1.17;0.40;;;;;;;19.08;100.00;98953.06;5039088;28;20217;-67
2023/08/06 09:15:45;;;;;;;1.97;0.53;;;;;;;18.77;100.00;98954.53;5033679;28;20573;-66
2023/08/06 09:18:11;;;;;;;1.90;0.43;;;;;;;18.65;100.00;98966.25;5033969;28;20178;-66
2023/08/06 09:20:39;;;;;;;0.40;0.40;;;;;;;18.46;100.00;98954.41;5028490;28;20237;-67
2023/08/06 09:23:09;;;;;;;1.27;0.37;;;;;;;19.16;100.00;98947.78;5044290;28;20186;-66
2023/08/06 09:25:38;;;;;;;1.70;0.40;;;;;;;19.32;100.00;98952.16;5033529;28;20205;-67
2023/08/06 09:28:03;;;;;;;2.40;0.50;;;;;;;19.77;100.00;98952.44;5032614;28;20284;-67
2023/08/06 09:30:33;;;;;;;0.80;0.67;;;;;;;19.48;100.00;98954.69;5027111;28;20232;-66
2023/08/06 09:32:58;;;;;;;0.83;0.43;;;;;;;19.43;100.00;98954.38;5044754;28;20228;-66
2023/08/06 09:35:24;;;;;;;0.40;0.40;;;;;;;20.08;100.00;98955.06;5033585;28;20185;-67
2023/08/06 09:37:49;;;;;;;0.40;0.40;;;;;;;20.94;100.00;98948.84;5015450;28;20182;-67
2023/08/06 09:40:29;;;;;;;1.67;0.40;;;;;;;21.24;100.00;98954.88;5025155;28;20174;-66
2023/08/06 09:42:55;;;;;;;0.40;0.40;;;;;;;21.60;100.00;98956.75;5045154;28;20174;-67
2023/08/06 09:45:21;;;;;;;0.30;0.30;;;;;;;21.33;100.00;98970.47;5031852;28;20201;-66
2023/08/06 09:47:50;;;;;;;1.50;0.30;;;;;;;20.90;100.00;98953.59;5032867;28;20544;-66
2023/08/06 09:50:19;;;;;;;1.43;0.40;;;;;;;20.89;100.00;98959.00;5025087;28;20189;-66
2023/08/06 09:52:46;;;;;;;0.40;0.30;;;;;;;21.07;100.00;98956.88;5045608;28;20190;-66
2023/08/06 09:55:12;;;;;;;2.10;0.40;;;;;;;20.54;100.00;98959.47;5032930;28;20221;-66
2023/08/06 09:57:38;;;;;;;0.37;0.37;;;;;;;20.68;100.00;98960.47;5031469;28;20182;-66
2023/08/06 10:00:04;;;;;;;1.17;0.40;;;;;;;20.84;100.00;98959.53;5025373;28;20224;-67
2023/08/06 10:02:31;;;;;;;1.13;0.30;;;;;;;22.09;100.00;98950.03;5047656;28;20202;-66
2023/08/06 10:04:57;;;;;;;0.40;0.27;;;;;;;23.58;100.00;98959.72;5032900;28;20189;-65
2023/08/06 10:07:24;;;;;;;0.73;0.30;;;;;;;24.61;99.89;98961.31;5031789;28;20174;-66
2023/08/06 10:09:49;;;;;;;1.20;0.20;;;;;;;25.86;86.62;98962.22;5032167;28;20182;-65
2023/08/06 10:12:18;;;;;;;0.63;0.30;;;;;;;26.26;82.85;98970.72;5022227;28;20235;-66
2023/08/06 10:14:44;;;;;;;0.65;0.30;;;;;;;25.71;88.08;98979.13;5032304;28;20186;-67
2023/08/06 10:17:10;;;;;;;0.90;0.80;;;;;;;24.02;92.46;98976.84;5033059;28;20269;-67
2023/08/06 10:19:36;;;;;;;0.40;0.20;;;;;;;24.41;96.11;98979.72;5032988;28;20213;-66
2023/08/06 10:22:11;;;;;;;0.55;0.30;;;;;;;26.28;86.71;98974.97;5023548;28;20558;-66
2023/08/06 10:24:57;;;;;;;0.50;0.30;;;;;;;26.76;74.17;98971.75;5032409;28;20193;-67
2023/08/06 10:27:31;;;;;;;0.20;0.20;;;;;;;27.75;63.06;98972.69;5034862;28;20225;-67
2023/08/06 10:30:26;;;;;;;0.30;0.10;;;;;;;27.96;63.03;98974.84;5030554;28;20176;-66
2023/08/06 10:33:04;;;;;;;0.20;0.20;;;;;;;29.11;54.31;98971.16;5036299;28;20253;-67
2023/08/06 10:35:50;;;;;;;0.05;0.05;;;;;;;28.34;58.71;98981.63;5032078;28;20186;-67
2023/08/06 10:38:22;;;;;;;0.10;0.10;;;;;;;27.13;66.44;98978.88;5032737;28;20199;-67
2023/08/06 10:40:53;;;;;;;0.52;0.30;;;;;;;24.07;90.96;98992.81;5027121;28;20743;-66
2023/08/06 10:43:33;;;;;;;0.50;0.20;;;;;;;22.51;100.00;98984.28;5020558;28;20178;-66
2023/08/06 10:46:01;;;;;;;1.40;0.20;;;;;;;20.88;100.00;98994.78;5031532;28;20181;-66
2023/08/06 10:48:39;;;;;;;0.70;0.20;;;;;;;20.19;100.00;98998.22;5032476;28;20573;-67
2023/08/06 10:51:11;;;;;;;0.47;0.30;;;;;;;20.19;100.00;99000.03;5027779;28;20220;-67
2023/08/06 10:53:37;;;;;;;0.30;0.30;;;;;;;20.04;100.00;98998.13;5030349;28;20220;-67
2023/08/06 10:56:12;;;;;;;0.10;0.10;;;;;;;19.71;100.00;99002.69;5031628;28;20253;-66
2023/08/06 10:58:38;;;;;;;0.20;0.20;;;;;;;19.93;100.00;99001.16;5031898;28;20477;-67
2023/08/06 11:01:03;;;;;;;1.47;0.20;;;;;;;20.36;100.00;99003.34;5019598;28;20247;-67
2023/08/06 11:03:28;;;;;;;1.67;0.50;;;;;;;19.66;100.00;98998.00;5039663;28;20186;-67
2023/08/06 11:05:54;;;;;;;0.20;0.20;;;;;;;19.32;100.00;99031.16;5031670;28;20174;-66
2023/08/06 11:08:27;;;;;;;0.77;0.20;;;;;;;18.53;100.00;99039.50;5031788;28;20178;-65
2023/08/06 11:10:52;;;;;;;0.40;0.40;;;;;;;18.38;100.00;99035.88;5028122;28;20758;-65
2023/08/06 11:13:18;;;;;;;0.50;0.20;;;;;;;18.25;100.00;99053.78;5040321;28;20201;-65
2023/08/06 11:15:44;;;;;;;0.30;0.30;;;;;;;18.27;100.00;99062.22;5026219;28;20249;-66
2023/08/06 11:18:10;;;;;;;0.20;0.20;;;;;;;18.34;100.00;99047.59;5036088;28;20201;-66
2023/08/06 11:20:36;;;;;;;1.13;0.23;;;;;;;17.99;100.00;99065.09;5025954;28;20704;-66
2023/08/06 11:23:01;;;;;;;0.23;0.23;;;;;;;18.14;100.00;99062.69;5042077;28;20175;-66